createdAt,value
2022-12-29T00:00:30.336Z,2.00
2022-12-29T00:01:30.125Z,2.00
2022-12-29T00:02:30.192Z,2.00
2022-12-29T00:03:30.268Z,2.00
2022-12-29T00:04:29.934Z,2.00
2022-12-29T00:05:29.923Z,2.00
2022-12-29T00:06:50.764Z,1.00
2022-12-29T00:07:29.769Z,0.00
2022-12-29T00:08:29.731Z,0.00
2022-12-29T00:09:29.673Z,0.00
2022-12-29T00:10:29.603Z,0.00
2022-12-29T00:11:29.532Z,0.00
2022-12-29T00:12:29.480Z,0.00
2022-12-29T00:13:29.445Z,0.00
2022-12-29T00:14:29.396Z,0.00
2022-12-29T00:15:29.302Z,0.00
2022-12-29T00:16:29.335Z,0.00
2022-12-29T00:17:29.134Z,1.00
2022-12-29T00:18:29.084Z,1.00
2022-12-29T00:19:29.015Z,2.00
2022-12-29T00:20:28.930Z,2.00
2022-12-29T00:21:28.892Z,2.00
2022-12-29T00:22:28.806Z,2.00
2022-12-29T00:23:28.733Z,2.00
2022-12-29T00:24:49.642Z,2.00
2022-12-29T00:25:28.637Z,2.00
2022-12-29T00:26:28.578Z,2.00
2022-12-29T00:27:28.485Z,2.00
2022-12-29T00:28:28.416Z,1.00
2022-12-29T00:29:28.424Z,0.00
2022-12-29T00:30:28.348Z,0.00
2022-12-29T00:31:28.366Z,0.00
2022-12-29T00:32:28.237Z,0.00
2022-12-29T00:33:28.137Z,0.00
2022-12-29T00:34:28.112Z,0.00
2022-12-29T00:35:28.060Z,0.00
2022-12-29T00:36:27.995Z,0.00
2022-12-29T00:37:27.902Z,0.00
2022-12-29T00:38:27.899Z,0.00
2022-12-29T00:39:27.749Z,0.00
2022-12-29T00:40:27.723Z,0.00
2022-12-29T00:41:27.668Z,0.00
2022-12-29T00:44:06.620Z,0.00
2022-12-29T00:45:07.570Z,0.00
2022-12-29T00:46:07.569Z,0.00
2022-12-29T00:47:07.432Z,0.00
2022-12-29T00:48:07.336Z,0.00
2022-12-29T00:49:07.300Z,0.00
2022-12-29T00:50:07.198Z,0.00
2022-12-29T00:51:07.144Z,0.00
2022-12-29T00:52:07.325Z,0.00
2022-12-29T00:53:07.101Z,0.00
2022-12-29T00:54:07.008Z,0.00
2022-12-29T00:55:06.941Z,0.00
2022-12-29T00:56:06.878Z,0.00
2022-12-29T00:57:06.812Z,0.00
2022-12-29T00:58:06.726Z,0.00
2022-12-29T00:59:06.644Z,0.00
2022-12-29T01:00:27.635Z,0.00
2022-12-29T01:01:06.639Z,0.00
2022-12-29T01:02:06.519Z,1.00
2022-12-29T01:03:06.408Z,1.00
2022-12-29T01:04:06.307Z,1.00
2022-12-29T01:05:06.285Z,2.00
2022-12-29T01:06:06.207Z,2.00
2022-12-29T01:07:06.157Z,2.00
2022-12-29T01:08:06.094Z,2.00
2022-12-29T01:09:06.034Z,2.00
2022-12-29T01:10:05.902Z,2.00
2022-12-29T01:11:05.864Z,2.00
2022-12-29T01:12:05.813Z,2.00
2022-12-29T01:13:05.733Z,1.00
2022-12-29T01:14:05.736Z,0.00
2022-12-29T01:15:05.666Z,0.00
2022-12-29T01:16:05.710Z,0.00
2022-12-29T01:17:05.578Z,0.00
2022-12-29T01:20:14.243Z,0.00
2022-12-29T01:21:15.166Z,0.00
2022-12-29T01:22:15.110Z,0.00
2022-12-29T01:23:15.009Z,0.00
2022-12-29T01:24:14.972Z,0.00
2022-12-29T01:25:14.859Z,0.00
2022-12-29T01:26:14.829Z,0.00
2022-12-29T01:27:14.766Z,0.00
2022-12-29T01:28:14.764Z,0.00
2022-12-29T01:29:14.631Z,0.00
2022-12-29T01:30:14.588Z,0.00
2022-12-29T01:31:14.603Z,0.00
2022-12-29T01:32:14.435Z,0.00
2022-12-29T01:33:14.408Z,0.00
2022-12-29T01:34:14.329Z,0.00
2022-12-29T01:35:14.316Z,0.00
2022-12-29T01:36:35.221Z,0.00
2022-12-29T01:37:14.649Z,0.00
2022-12-29T01:38:14.089Z,0.00
2022-12-29T01:39:14.377Z,0.00
2022-12-29T01:40:13.962Z,0.00
2022-12-29T01:41:13.872Z,0.00
2022-12-29T01:42:13.836Z,0.00
2022-12-29T01:43:13.787Z,0.00
2022-12-29T01:44:13.722Z,0.00
2022-12-29T01:45:13.616Z,0.00
2022-12-29T01:46:13.601Z,0.00
2022-12-29T01:47:13.466Z,0.00
2022-12-29T01:48:13.517Z,0.00
2022-12-29T01:49:13.380Z,0.00
2022-12-29T01:50:13.331Z,0.00
2022-12-29T01:51:13.308Z,0.00
2022-12-29T01:52:13.205Z,0.00
2022-12-29T01:53:13.176Z,0.00
2022-12-29T01:54:13.096Z,0.00
2022-12-29T01:55:13.052Z,0.00
2022-12-29T01:56:12.949Z,0.00
2022-12-29T01:57:12.885Z,0.00
2022-12-29T01:58:12.784Z,0.00
2022-12-29T01:59:12.777Z,0.00
2022-12-29T02:00:12.718Z,0.00
2022-12-29T02:01:12.647Z,0.00
2022-12-29T02:02:12.672Z,0.00
2022-12-29T02:03:12.568Z,0.00
2022-12-29T02:04:12.447Z,0.00
2022-12-29T02:05:12.409Z,0.00
2022-12-29T02:06:33.355Z,0.00
2022-12-29T02:07:12.196Z,0.00
2022-12-29T02:08:12.191Z,0.00
2022-12-29T02:09:12.089Z,0.00
2022-12-29T02:10:12.095Z,0.00
2022-12-29T02:11:12.048Z,0.00
2022-12-29T02:12:11.961Z,0.00
2022-12-29T02:13:11.840Z,0.00
2022-12-29T02:14:11.872Z,0.00
2022-12-29T02:15:11.779Z,0.00
2022-12-29T02:16:11.770Z,0.00
2022-12-29T02:17:11.579Z,0.00
2022-12-29T02:18:11.563Z,0.00
2022-12-29T02:19:11.490Z,0.00
2022-12-29T02:20:11.460Z,0.00
2022-12-29T02:21:11.407Z,0.00
2022-12-29T02:22:11.258Z,0.00
2022-12-29T02:23:11.268Z,0.00
2022-12-29T02:24:11.195Z,0.00
2022-12-29T02:25:11.104Z,0.00
2022-12-29T02:26:10.999Z,0.00
2022-12-29T02:27:10.973Z,0.00
2022-12-29T02:28:10.894Z,0.00
2022-12-29T02:29:10.866Z,0.00
2022-12-29T02:30:10.779Z,0.00
2022-12-29T02:31:10.704Z,0.00
2022-12-29T02:32:10.679Z,0.00
2022-12-29T02:33:10.648Z,0.00
2022-12-29T02:34:10.543Z,0.00
2022-12-29T02:35:10.422Z,0.00
2022-12-29T02:36:10.428Z,0.00
2022-12-29T02:37:10.389Z,0.00
2022-12-29T02:38:10.325Z,0.00
2022-12-29T02:39:10.243Z,0.00
2022-12-29T02:40:10.138Z,0.00
2022-12-29T02:41:10.098Z,0.00
2022-12-29T02:42:10.053Z,0.00
2022-12-29T02:43:09.972Z,0.00
2022-12-29T02:44:09.904Z,0.00
2022-12-29T02:45:09.842Z,0.00
2022-12-29T02:46:09.802Z,0.00
2022-12-29T02:47:09.724Z,0.00
2022-12-29T02:48:09.667Z,0.00
2022-12-29T02:49:09.551Z,0.00
2022-12-29T02:50:09.482Z,0.00
2022-12-29T02:51:09.414Z,0.00
2022-12-29T02:52:09.377Z,0.00
2022-12-29T02:53:09.316Z,0.00
2022-12-29T02:54:09.230Z,0.00
2022-12-29T02:55:09.185Z,0.00
2022-12-29T02:56:09.123Z,0.00
2022-12-29T02:57:09.055Z,0.00
2022-12-29T02:58:09.013Z,0.00
2022-12-29T02:59:08.918Z,1.00
2022-12-29T03:00:08.953Z,1.00
2022-12-29T03:01:08.855Z,1.00
2022-12-29T03:02:08.863Z,1.00
2022-12-29T03:03:08.686Z,1.00
2022-12-29T03:04:08.641Z,0.00
2022-12-29T03:05:08.549Z,0.00
2022-12-29T03:06:08.470Z,1.00
2022-12-29T03:07:08.423Z,1.00
2022-12-29T03:08:08.321Z,2.00
2022-12-29T03:09:19.145Z,2.00
2022-12-29T03:10:08.228Z,2.00
2022-12-29T03:11:08.084Z,2.00
2022-12-29T03:12:08.069Z,2.00
2022-12-29T03:13:07.987Z,2.00
2022-12-29T03:14:07.945Z,2.00
2022-12-29T03:15:07.881Z,2.00
2022-12-29T03:16:07.768Z,2.00
2022-12-29T03:17:07.827Z,2.00
2022-12-29T03:18:07.749Z,2.00
2022-12-29T03:19:07.635Z,2.00
2022-12-29T03:20:07.548Z,2.00
2022-12-29T03:21:07.477Z,2.00
2022-12-29T03:22:07.390Z,2.00
2022-12-29T03:23:07.410Z,2.00
2022-12-29T03:25:16.453Z,2.00
2022-12-29T03:26:17.419Z,2.00
2022-12-29T03:27:17.400Z,2.00
2022-12-29T03:28:17.294Z,2.00
2022-12-29T03:29:17.189Z,2.00
2022-12-29T03:30:17.187Z,2.00
2022-12-29T03:31:17.114Z,2.00
2022-12-29T03:32:17.040Z,2.00
2022-12-29T03:33:16.947Z,2.00
2022-12-29T03:34:16.856Z,2.00
2022-12-29T03:35:16.857Z,2.00
2022-12-29T03:36:16.747Z,2.00
2022-12-29T03:37:16.720Z,2.00
2022-12-29T03:38:16.616Z,2.00
2022-12-29T03:39:16.590Z,1.00
2022-12-29T03:40:16.566Z,0.00
2022-12-29T03:41:16.448Z,2.00
2022-12-29T03:43:55.432Z,0.00
2022-12-29T03:44:56.289Z,2.00
2022-12-29T03:45:56.283Z,2.00
2022-12-29T03:46:56.150Z,2.00
2022-12-29T03:47:56.137Z,1.00
2022-12-29T03:48:56.080Z,0.00
2022-12-29T03:49:56.029Z,0.00
2022-12-29T03:50:55.992Z,0.00
2022-12-29T03:51:55.852Z,0.00
2022-12-29T03:52:55.838Z,0.00
2022-12-29T03:53:55.801Z,0.00
2022-12-29T03:54:55.693Z,0.00
2022-12-29T03:55:55.647Z,0.00
2022-12-29T03:56:55.599Z,0.00
2022-12-29T03:57:55.480Z,0.00
2022-12-29T03:58:55.483Z,0.00
2022-12-29T04:00:16.382Z,0.00
2022-12-29T04:00:55.354Z,0.00
2022-12-29T04:01:55.321Z,0.00
2022-12-29T04:02:55.557Z,0.00
2022-12-29T04:03:55.160Z,0.00
2022-12-29T04:04:55.046Z,0.00
2022-12-29T04:05:54.968Z,0.00
2022-12-29T04:06:54.940Z,0.00
2022-12-29T04:07:54.931Z,0.00
2022-12-29T04:08:54.821Z,0.00
2022-12-29T04:09:54.730Z,0.00
2022-12-29T04:10:54.699Z,0.00
2022-12-29T04:11:54.715Z,0.00
2022-12-29T04:12:54.624Z,0.00
2022-12-29T04:13:54.538Z,0.00
2022-12-29T04:14:54.419Z,0.00
2022-12-29T04:15:54.443Z,0.00
2022-12-29T04:16:54.308Z,0.00
2022-12-29T04:17:54.247Z,0.00
2022-12-29T04:18:54.158Z,0.00
2022-12-29T04:19:54.059Z,1.00
2022-12-29T04:20:54.002Z,1.00
2022-12-29T04:21:53.893Z,1.00
2022-12-29T04:22:53.933Z,0.00
2022-12-29T04:23:53.880Z,0.00
2022-12-29T04:24:53.810Z,0.00
2022-12-29T04:25:53.684Z,1.00
2022-12-29T04:26:53.658Z,1.00
2022-12-29T04:27:53.539Z,2.00
2022-12-29T04:28:53.489Z,2.00
2022-12-29T04:29:53.451Z,2.00
2022-12-29T04:30:53.420Z,2.00
2022-12-29T04:31:53.321Z,2.00
2022-12-29T04:32:53.200Z,2.00
2022-12-29T04:33:53.189Z,2.00
2022-12-29T04:34:53.069Z,2.00
2022-12-29T04:36:14.020Z,1.00
2022-12-29T04:36:53.018Z,0.00
2022-12-29T04:37:52.961Z,0.00
2022-12-29T04:38:52.829Z,2.00
2022-12-29T04:39:52.782Z,2.00
2022-12-29T04:40:52.749Z,2.00
2022-12-29T04:41:52.650Z,2.00
2022-12-29T04:42:52.572Z,2.00
2022-12-29T04:43:52.587Z,2.00
2022-12-29T04:44:52.525Z,2.00
2022-12-29T04:45:52.383Z,2.00
2022-12-29T04:46:52.434Z,1.00
2022-12-29T04:47:52.556Z,2.00
2022-12-29T04:48:52.216Z,2.00
2022-12-29T04:49:52.131Z,1.00
2022-12-29T04:50:52.164Z,0.00
2022-12-29T04:51:52.118Z,0.00
2022-12-29T04:52:52.016Z,2.00
2022-12-29T04:56:30.374Z,0.00
2022-12-29T04:57:31.358Z,0.00
2022-12-29T04:58:31.285Z,2.00
2022-12-29T04:59:31.232Z,2.00
2022-12-29T05:00:31.120Z,2.00
2022-12-29T05:01:31.156Z,2.00
2022-12-29T05:02:31.171Z,2.00
2022-12-29T05:03:31.003Z,2.00
2022-12-29T05:04:30.859Z,2.00
2022-12-29T05:05:30.846Z,1.00
2022-12-29T05:06:30.797Z,0.00
2022-12-29T05:07:30.766Z,0.00
2022-12-29T05:08:30.628Z,0.00
2022-12-29T05:09:30.640Z,0.00
2022-12-29T05:10:30.536Z,1.00
2022-12-29T05:11:30.442Z,1.00
2022-12-29T05:12:30.371Z,2.00
2022-12-29T05:13:30.296Z,1.00
2022-12-29T05:14:30.266Z,0.00
2022-12-29T05:15:30.186Z,2.00
2022-12-29T05:16:30.199Z,2.00
2022-12-29T05:17:30.062Z,1.00
2022-12-29T05:18:30.039Z,0.00
2022-12-29T05:19:29.918Z,0.00
2022-12-29T05:20:29.899Z,0.00
2022-12-29T05:21:29.885Z,0.00
2022-12-29T05:22:29.740Z,1.00
2022-12-29T05:23:29.644Z,1.00
2022-12-29T05:24:29.592Z,2.00
2022-12-29T05:25:29.532Z,2.00
2022-12-29T05:26:29.473Z,2.00
2022-12-29T05:27:29.414Z,2.00
2022-12-29T05:28:29.310Z,2.00
2022-12-29T05:30:38.514Z,2.00
2022-12-29T05:31:40.007Z,2.00
2022-12-29T05:32:39.320Z,2.00
2022-12-29T05:33:39.278Z,1.00
2022-12-29T05:34:39.245Z,0.00
2022-12-29T05:35:39.242Z,0.00
2022-12-29T05:36:39.112Z,0.00
2022-12-29T05:37:39.045Z,0.00
2022-12-29T05:38:38.963Z,2.00
2022-12-29T05:39:38.881Z,2.00
2022-12-29T05:40:38.829Z,2.00
2022-12-29T05:41:38.743Z,1.00
2022-12-29T05:42:38.791Z,0.00
2022-12-29T05:43:38.699Z,0.00
2022-12-29T05:44:38.632Z,0.00
2022-12-29T05:45:38.535Z,0.00
2022-12-29T05:46:38.577Z,0.00
2022-12-29T05:47:38.480Z,0.00
2022-12-29T05:48:38.516Z,0.00
2022-12-29T05:49:38.310Z,0.00
2022-12-29T05:50:38.250Z,0.00
2022-12-29T05:51:38.149Z,0.00
2022-12-29T05:52:38.133Z,0.00
2022-12-29T05:53:38.089Z,0.00
2022-12-29T05:54:37.934Z,1.00
2022-12-29T05:55:40.923Z,1.00
2022-12-29T05:56:37.832Z,2.00
2022-12-29T05:57:37.760Z,2.00
2022-12-29T05:58:37.660Z,2.00
2022-12-29T05:59:37.642Z,2.00
2022-12-29T06:00:37.610Z,2.00
2022-12-29T06:01:37.649Z,2.00
2022-12-29T06:02:37.644Z,2.00
2022-12-29T06:03:38.977Z,2.00
2022-12-29T06:04:37.352Z,2.00
2022-12-29T06:05:37.302Z,2.00
2022-12-29T06:06:37.196Z,2.00
2022-12-29T06:07:37.087Z,2.00
2022-12-29T06:08:37.028Z,2.00
2022-12-29T06:09:37.042Z,2.00
2022-12-29T06:10:36.931Z,2.00
2022-12-29T06:11:36.885Z,2.00
2022-12-29T06:12:36.793Z,2.00
2022-12-29T06:13:36.717Z,2.00
2022-12-29T06:14:36.695Z,2.00
2022-12-29T06:15:36.588Z,2.00
2022-12-29T06:16:36.739Z,2.00
2022-12-29T06:17:36.545Z,2.00
2022-12-29T06:18:36.400Z,2.00
2022-12-29T06:19:36.401Z,2.00
2022-12-29T06:20:36.323Z,2.00
2022-12-29T06:21:36.188Z,2.00
2022-12-29T06:22:36.219Z,2.00
2022-12-29T06:25:15.005Z,2.00
2022-12-29T06:26:15.940Z,2.00
2022-12-29T06:27:15.839Z,2.00
2022-12-29T06:28:15.762Z,2.00
2022-12-29T06:29:15.787Z,2.00
2022-12-29T06:30:15.680Z,2.00
2022-12-29T06:31:15.631Z,2.00
2022-12-29T06:32:15.554Z,2.00
2022-12-29T06:33:15.495Z,2.00
2022-12-29T06:34:15.405Z,2.00
2022-12-29T06:35:15.328Z,2.00
2022-12-29T06:36:15.303Z,2.00
2022-12-29T06:37:15.228Z,2.00
2022-12-29T06:38:15.124Z,1.00
2022-12-29T06:39:15.127Z,0.00
2022-12-29T06:40:15.112Z,0.00
2022-12-29T06:41:15.031Z,0.00
2022-12-29T06:42:15.020Z,0.00
2022-12-29T06:43:14.912Z,0.00
2022-12-29T06:44:14.825Z,0.00
2022-12-29T06:45:15.479Z,1.00
2022-12-29T06:46:14.753Z,1.00
2022-12-29T06:47:14.565Z,2.00
2022-12-29T06:48:14.556Z,2.00
2022-12-29T06:49:14.442Z,2.00
2022-12-29T06:50:14.373Z,2.00
2022-12-29T06:51:14.357Z,1.00
2022-12-29T06:52:14.362Z,0.00
2022-12-29T06:53:14.324Z,0.00
2022-12-29T06:54:14.206Z,0.00
2022-12-29T06:55:14.120Z,0.00
2022-12-29T06:56:14.132Z,0.00
2022-12-29T06:57:13.994Z,1.00
2022-12-29T06:58:13.900Z,2.00
2022-12-29T06:59:14.157Z,2.00
2022-12-29T07:00:18.050Z,3.00
2022-12-29T07:01:13.707Z,2.00
2022-12-29T07:02:13.925Z,1.00
2022-12-29T07:03:13.731Z,2.00
2022-12-29T07:04:13.486Z,3.00
2022-12-29T07:05:13.458Z,3.00
2022-12-29T07:06:13.396Z,4.00
2022-12-29T07:07:13.326Z,4.00
2022-12-29T07:08:13.319Z,8.00
2022-12-29T07:09:13.197Z,7.00
2022-12-29T07:10:13.118Z,6.00
2022-12-29T07:11:13.071Z,6.00
2022-12-29T07:12:12.981Z,3.00
2022-12-29T07:13:12.905Z,9.00
2022-12-29T07:14:12.893Z,12.00
2022-12-29T07:15:12.802Z,15.00
2022-12-29T07:16:12.873Z,17.00
2022-12-29T07:17:33.717Z,15.00
2022-12-29T07:18:12.627Z,15.00
2022-12-29T07:19:12.561Z,18.00
2022-12-29T07:20:12.541Z,18.00
2022-12-29T07:21:12.417Z,19.00
2022-12-29T07:22:12.357Z,24.00
2022-12-29T07:23:12.291Z,23.00
2022-12-29T07:24:12.221Z,21.00
2022-12-29T07:25:12.188Z,27.00
2022-12-29T07:26:12.079Z,33.00
2022-12-29T07:27:12.002Z,31.00
2022-12-29T07:28:11.990Z,28.00
2022-12-29T07:29:11.937Z,27.00
2022-12-29T07:30:11.889Z,24.00
2022-12-29T07:31:11.801Z,24.00
2022-12-29T07:32:11.820Z,23.00
2022-12-29T07:33:11.672Z,28.00
2022-12-29T07:34:11.619Z,26.00
2022-12-29T07:35:32.512Z,18.00
2022-12-29T07:36:11.516Z,33.00
2022-12-29T07:37:11.399Z,46.00
2022-12-29T07:38:11.315Z,43.00
2022-12-29T07:39:11.261Z,36.00
2022-12-29T07:40:11.227Z,40.00
2022-12-29T07:41:11.146Z,40.00
2022-12-29T07:42:11.094Z,92.00
2022-12-29T07:43:11.036Z,78.00
2022-12-29T07:44:10.944Z,40.00
2022-12-29T07:45:10.865Z,77.00
2022-12-29T07:46:18.977Z,47.00
2022-12-29T07:47:10.799Z,69.00
2022-12-29T07:48:10.730Z,46.00
2022-12-29T07:49:10.686Z,93.00
2022-12-29T07:50:10.578Z,89.00
2022-12-29T07:51:10.543Z,74.00
2022-12-29T07:52:10.479Z,103.00
2022-12-29T07:53:10.376Z,90.00
2022-12-29T07:54:10.340Z,137.00
2022-12-29T07:55:10.267Z,134.00
2022-12-29T07:56:10.187Z,70.00
2022-12-29T07:57:10.093Z,102.00
2022-12-29T07:58:10.094Z,79.00
2022-12-29T07:59:10.021Z,66.00
2022-12-29T08:00:09.921Z,60.00
2022-12-29T08:01:09.926Z,76.00
2022-12-29T08:02:09.891Z,56.00
2022-12-29T08:03:09.735Z,71.00
2022-12-29T08:04:09.750Z,58.00
2022-12-29T08:05:10.070Z,128.00
2022-12-29T08:06:09.568Z,67.00
2022-12-29T08:07:09.463Z,185.00
2022-12-29T08:08:09.444Z,177.00
2022-12-29T08:09:15.000Z,120.00
2022-12-29T08:10:09.269Z,159.00
2022-12-29T08:11:09.263Z,161.00
2022-12-29T08:12:09.166Z,152.00
2022-12-29T08:13:09.128Z,102.00
2022-12-29T08:14:09.039Z,179.00
2022-12-29T08:15:08.973Z,174.00
2022-12-29T08:16:09.074Z,128.00
2022-12-29T08:17:08.841Z,204.00
2022-12-29T08:18:08.780Z,207.00
2022-12-29T08:19:08.772Z,116.00
2022-12-29T08:20:08.637Z,288.00
2022-12-29T08:21:08.564Z,299.00
2022-12-29T08:22:08.498Z,257.00
2022-12-29T08:23:08.443Z,206.00
2022-12-29T08:24:08.401Z,143.00
2022-12-29T08:25:08.342Z,157.00
2022-12-29T08:26:08.287Z,210.00
2022-12-29T08:27:16.133Z,213.00
2022-12-29T08:28:08.179Z,187.00
2022-12-29T08:29:08.089Z,145.00
2022-12-29T08:30:08.044Z,192.00
2022-12-29T08:31:08.006Z,188.00
2022-12-29T08:32:07.923Z,161.00
2022-12-29T08:33:07.824Z,183.00
2022-12-29T08:34:07.769Z,174.00
2022-12-29T08:35:07.736Z,207.00
2022-12-29T08:36:07.640Z,219.00
2022-12-29T08:37:07.599Z,197.00
2022-12-29T08:38:07.532Z,170.00
2022-12-29T08:39:07.471Z,135.00
2022-12-29T08:40:07.386Z,163.00
2022-12-29T08:41:07.303Z,135.00
2022-12-29T08:42:07.263Z,131.00
2022-12-29T08:43:08.046Z,149.00
2022-12-29T08:44:07.111Z,136.00
2022-12-29T08:45:07.053Z,176.00
2022-12-29T08:46:07.091Z,122.00
2022-12-29T08:47:27.977Z,161.00
2022-12-29T08:48:06.859Z,220.00
2022-12-29T08:49:06.834Z,187.00
2022-12-29T08:50:06.763Z,153.00
2022-12-29T08:51:06.679Z,119.00
2022-12-29T08:52:06.691Z,112.00
2022-12-29T08:53:06.584Z,97.00
2022-12-29T08:54:06.487Z,84.00
2022-12-29T08:55:06.431Z,64.00
2022-12-29T08:56:06.390Z,61.00
2022-12-29T08:57:06.299Z,45.00
2022-12-29T08:58:06.242Z,87.00
2022-12-29T08:59:06.167Z,101.00
2022-12-29T09:00:06.114Z,84.00
2022-12-29T09:01:06.039Z,63.00
2022-12-29T09:02:06.085Z,20.00
2022-12-29T09:03:06.156Z,116.00
2022-12-29T09:04:15.442Z,173.00
2022-12-29T09:05:05.869Z,144.00
2022-12-29T09:06:05.753Z,121.00
2022-12-29T09:07:05.683Z,101.00
2022-12-29T09:08:05.623Z,92.00
2022-12-29T09:09:05.528Z,87.00
2022-12-29T09:10:05.488Z,83.00
2022-12-29T09:11:05.864Z,114.00
2022-12-29T09:12:05.335Z,98.00
2022-12-29T09:13:05.318Z,92.00
2022-12-29T09:14:05.242Z,88.00
2022-12-29T09:15:05.179Z,53.00
2022-12-29T09:16:05.144Z,141.00
2022-12-29T09:17:05.075Z,186.00
2022-12-29T09:18:04.956Z,218.00
2022-12-29T09:19:04.889Z,258.00
2022-12-29T09:20:04.839Z,341.00
2022-12-29T09:21:04.768Z,450.00
2022-12-29T09:22:04.753Z,612.00
2022-12-29T09:23:25.630Z,559.00
2022-12-29T09:24:04.601Z,602.00
2022-12-29T09:25:04.491Z,639.00
2022-12-29T09:26:04.439Z,717.00
2022-12-29T09:27:04.432Z,664.00
2022-12-29T09:28:04.350Z,981.00
2022-12-29T09:29:04.311Z,724.00
2022-12-29T09:30:04.259Z,681.00
2022-12-29T09:31:04.202Z,847.00
2022-12-29T09:32:07.648Z,678.00
2022-12-29T09:33:04.038Z,923.00
2022-12-29T09:34:04.010Z,857.00
2022-12-29T09:35:03.887Z,956.00
2022-12-29T09:36:03.843Z,988.00
2022-12-29T09:37:03.729Z,1273.00
2022-12-29T09:38:03.715Z,986.00
2022-12-29T09:39:03.614Z,1058.00
2022-12-29T09:40:04.445Z,1224.00
2022-12-29T09:41:24.502Z,1444.00
2022-12-29T09:42:03.456Z,1281.00
2022-12-29T09:43:03.363Z,1047.00
2022-12-29T09:44:03.368Z,757.00
2022-12-29T09:45:03.253Z,838.00
2022-12-29T09:46:03.196Z,1205.00
2022-12-29T09:47:03.266Z,1255.00
2022-12-29T09:48:08.120Z,1090.00
2022-12-29T09:49:03.016Z,1327.00
2022-12-29T09:50:02.946Z,908.00
2022-12-29T09:51:03.447Z,644.00
2022-12-29T09:52:02.868Z,1423.00
2022-12-29T09:53:02.779Z,1241.00
2022-12-29T09:54:02.704Z,1159.00
2022-12-29T09:55:07.606Z,1270.00
2022-12-29T09:56:02.570Z,1874.00
2022-12-29T09:57:02.549Z,2991.00
2022-12-29T09:58:02.447Z,1800.00
2022-12-29T09:59:23.343Z,1544.00
2022-12-29T10:00:02.313Z,1668.00
2022-12-29T10:01:02.259Z,2029.00
2022-12-29T10:02:02.358Z,1043.00
2022-12-29T10:03:02.306Z,2545.00
2022-12-29T10:04:02.064Z,2285.00
2022-12-29T10:05:02.047Z,1891.00
2022-12-29T10:06:01.916Z,970.00
2022-12-29T10:07:28.604Z,459.00
2022-12-29T10:08:01.763Z,2477.00
2022-12-29T10:09:01.783Z,2543.00
2022-12-29T10:10:01.634Z,2746.00
2022-12-29T10:11:01.655Z,2642.00
2022-12-29T10:12:01.527Z,2561.00
2022-12-29T10:13:01.474Z,2539.00
2022-12-29T10:14:01.432Z,1204.00
2022-12-29T10:15:01.377Z,473.00
2022-12-29T10:16:01.371Z,2622.00
2022-12-29T10:18:40.176Z,1383.00
2022-12-29T10:19:41.098Z,452.00
2022-12-29T10:20:41.030Z,2172.00
2022-12-29T10:21:40.967Z,2445.00
2022-12-29T10:22:40.886Z,2766.00
2022-12-29T10:23:40.841Z,2088.00
2022-12-29T10:24:40.751Z,1408.00
2022-12-29T10:25:40.767Z,718.00
2022-12-29T10:26:40.624Z,2239.00
2022-12-29T10:27:40.584Z,2202.00
2022-12-29T10:28:40.519Z,2351.00
2022-12-29T10:29:40.464Z,2469.00
2022-12-29T10:30:40.419Z,2288.00
2022-12-29T10:31:40.355Z,2167.00
2022-12-29T10:32:40.283Z,1261.00
2022-12-29T10:33:40.211Z,1304.00
2022-12-29T10:35:49.298Z,902.00
2022-12-29T10:36:50.263Z,901.00
2022-12-29T10:37:50.134Z,563.00
2022-12-29T10:38:50.096Z,383.00
2022-12-29T10:39:50.057Z,1704.00
2022-12-29T10:40:49.993Z,917.00
2022-12-29T10:41:49.908Z,1102.00
2022-12-29T10:42:49.981Z,1121.00
2022-12-29T10:43:49.852Z,898.00
2022-12-29T10:44:49.685Z,760.00
2022-12-29T10:45:49.754Z,640.00
2022-12-29T10:46:49.627Z,600.00
2022-12-29T10:47:49.589Z,621.00
2022-12-29T10:48:49.535Z,457.00
2022-12-29T10:49:49.411Z,777.00
2022-12-29T10:50:49.339Z,664.00
2022-12-29T10:51:49.269Z,621.00
2022-12-29T10:53:10.260Z,713.00
2022-12-29T10:53:49.177Z,637.00
2022-12-29T10:54:49.127Z,528.00
2022-12-29T10:55:49.020Z,648.00
2022-12-29T10:56:48.986Z,530.00
2022-12-29T10:57:49.785Z,897.00
2022-12-29T10:58:49.829Z,1488.00
2022-12-29T10:59:49.289Z,1192.00
2022-12-29T11:00:48.738Z,948.00
2022-12-29T11:01:48.885Z,824.00
2022-12-29T11:02:48.715Z,1129.00
2022-12-29T11:03:48.548Z,1056.00
2022-12-29T11:04:48.498Z,997.00
2022-12-29T11:05:48.446Z,886.00
2022-12-29T11:06:48.303Z,757.00
2022-12-29T11:07:48.273Z,718.00
2022-12-29T11:08:48.210Z,672.00
2022-12-29T11:09:48.193Z,685.00
2022-12-29T11:10:48.069Z,660.00
2022-12-29T11:11:48.048Z,827.00
2022-12-29T11:12:48.000Z,1060.00
2022-12-29T11:13:47.901Z,1074.00
2022-12-29T11:14:47.806Z,1146.00
2022-12-29T11:15:47.761Z,1193.00
2022-12-29T11:16:47.737Z,1168.00
2022-12-29T11:17:47.617Z,1151.00
2022-12-29T11:18:47.573Z,1193.00
2022-12-29T11:19:47.487Z,1148.00
2022-12-29T11:20:47.445Z,1199.00
2022-12-29T11:21:47.409Z,1145.00
2022-12-29T11:22:47.339Z,1181.00
2022-12-29T11:23:47.224Z,1156.00
2022-12-29T11:24:47.161Z,1194.00
2022-12-29T11:25:47.121Z,1193.00
2022-12-29T11:26:47.044Z,1203.00
2022-12-29T11:27:46.970Z,1155.00
2022-12-29T11:30:25.850Z,1040.00
2022-12-29T11:31:26.796Z,1029.00
2022-12-29T11:32:29.069Z,1045.00
2022-12-29T11:33:26.632Z,1042.00
2022-12-29T11:34:26.803Z,1088.00
2022-12-29T11:35:26.544Z,1090.00
2022-12-29T11:36:26.433Z,1073.00
2022-12-29T11:37:26.378Z,1066.00
2022-12-29T11:38:26.294Z,1042.00
2022-12-29T11:39:26.194Z,1026.00
2022-12-29T11:40:26.158Z,1009.00
2022-12-29T11:41:26.135Z,981.00
2022-12-29T11:42:26.033Z,957.00
2022-12-29T11:43:25.970Z,994.00
2022-12-29T11:44:25.911Z,954.00
2022-12-29T11:45:25.867Z,1010.00
2022-12-29T11:46:25.896Z,1053.00
2022-12-29T11:47:25.728Z,1061.00
2022-12-29T11:48:25.698Z,1035.00
2022-12-29T11:49:25.617Z,1061.00
2022-12-29T11:50:25.529Z,969.00
2022-12-29T11:51:25.619Z,925.00
2022-12-29T11:52:25.368Z,1012.00
2022-12-29T11:53:25.373Z,979.00
2022-12-29T11:54:25.245Z,846.00
2022-12-29T11:55:25.238Z,728.00
2022-12-29T11:56:25.167Z,865.00
2022-12-29T11:57:25.107Z,865.00
2022-12-29T11:58:25.034Z,925.00
2022-12-29T11:59:24.966Z,890.00
2022-12-29T12:00:24.896Z,896.00
2022-12-29T12:01:24.863Z,877.00
2022-12-29T12:02:24.917Z,800.00
2022-12-29T12:03:24.899Z,853.00
2022-12-29T12:04:24.717Z,879.00
2022-12-29T12:05:45.584Z,883.00
2022-12-29T12:06:24.580Z,888.00
2022-12-29T12:07:24.476Z,867.00
2022-12-29T12:08:24.379Z,834.00
2022-12-29T12:09:24.300Z,835.00
2022-12-29T12:10:24.236Z,845.00
2022-12-29T12:11:24.300Z,808.00
2022-12-29T12:12:24.207Z,812.00
2022-12-29T12:13:24.098Z,806.00
2022-12-29T12:14:24.006Z,821.00
2022-12-29T12:15:23.917Z,809.00
2022-12-29T12:16:23.973Z,811.00
2022-12-29T12:17:23.832Z,823.00
2022-12-29T12:18:23.745Z,857.00
2022-12-29T12:19:23.716Z,860.00
2022-12-29T12:20:23.696Z,726.00
2022-12-29T12:21:23.613Z,615.00
2022-12-29T12:22:23.534Z,436.00
2022-12-29T12:24:32.632Z,652.00
2022-12-29T12:25:33.601Z,616.00
2022-12-29T12:26:33.501Z,653.00
2022-12-29T12:27:33.433Z,712.00
2022-12-29T12:28:36.788Z,792.00
2022-12-29T12:29:33.337Z,773.00
2022-12-29T12:30:33.197Z,799.00
2022-12-29T12:31:34.028Z,760.00
2022-12-29T12:32:33.069Z,795.00
2022-12-29T12:33:33.020Z,753.00
2022-12-29T12:34:32.941Z,792.00
2022-12-29T12:35:32.951Z,764.00
2022-12-29T12:36:32.845Z,692.00
2022-12-29T12:37:32.777Z,694.00
2022-12-29T12:38:33.603Z,560.00
2022-12-29T12:39:32.748Z,577.00
2022-12-29T12:40:32.573Z,593.00
2022-12-29T12:41:32.566Z,491.00
2022-12-29T12:42:32.492Z,438.00
2022-12-29T12:43:32.469Z,531.00
2022-12-29T12:44:32.399Z,520.00
2022-12-29T12:45:32.344Z,620.00
2022-12-29T12:46:32.350Z,764.00
2022-12-29T12:47:32.189Z,831.00
2022-12-29T12:48:32.127Z,713.00
2022-12-29T12:49:32.092Z,596.00
2022-12-29T12:50:31.932Z,646.00
2022-12-29T12:51:31.893Z,776.00
2022-12-29T12:52:31.843Z,661.00
2022-12-29T12:53:31.878Z,511.00
2022-12-29T12:54:31.705Z,585.00
2022-12-29T12:55:31.638Z,563.00
2022-12-29T12:56:31.578Z,424.00
2022-12-29T12:57:31.518Z,383.00
2022-12-29T12:58:31.451Z,483.00
2022-12-29T12:59:31.425Z,503.00
2022-12-29T13:00:31.359Z,534.00
2022-12-29T13:01:31.432Z,516.00
2022-12-29T13:02:31.461Z,407.00
2022-12-29T13:03:31.214Z,361.00
2022-12-29T13:04:31.097Z,429.00
2022-12-29T13:05:31.022Z,643.00
2022-12-29T13:06:30.966Z,782.00
2022-12-29T13:07:30.885Z,847.00
2022-12-29T13:08:30.841Z,840.00
2022-12-29T13:09:30.785Z,744.00
2022-12-29T13:10:30.747Z,815.00
2022-12-29T13:11:30.706Z,855.00